Time;durP1;ratioP1;P1;durP2;ratioP2;P2;SDS_P1;SDS_P2;PMS_P1;PMS_P2;Temp;Humidity;BMP_temperature;BMP_pressure;BME280_temperature;BME280_humidity;BME280_pressure;Samples;Min_cycle;Max_cycle;Signal;HPM_P1;HPM_P2
2022/07/21 00:00:44;;;;;;;9.33;8.13;;;21.30;99.90;;;;;;5075013;28;20205;-81
2022/07/21 00:03:10;;;;;;;9.93;7.67;;;;;;;;;;5075419;28;20246;-82
2022/07/21 00:05:36;;;;;;;10.10;8.53;;;21.40;99.90;;;;;;5080328;28;20189;-82
2022/07/21 00:08:03;;;;;;;8.93;7.37;;;;;;;;;;5079329;28;20519;-82
2022/07/21 00:10:29;;;;;;;9.10;8.10;;;;;;;;;;5078834;28;20177;-82
2022/07/21 00:12:55;;;;;;;10.70;7.90;;;21.30;99.90;;;;;;5080052;28;20169;-82
2022/07/21 00:15:24;;;;;;;10.30;8.37;;;21.30;99.90;;;;;;5077778;28;20250;-82
2022/07/21 00:17:50;;;;;;;8.90;7.97;;;21.30;99.90;;;;;;5077982;28;20181;-82
2022/07/21 00:20:17;;;;;;;9.40;8.40;;;21.20;99.90;;;;;;5079844;28;20269;-82
2022/07/21 00:22:43;;;;;;;10.70;8.80;;;21.20;99.90;;;;;;5077644;28;20205;-82
2022/07/21 00:25:11;;;;;;;12.00;7.87;;;21.10;99.90;;;;;;5078959;28;20287;-82
2022/07/21 00:27:37;;;;;;;9.03;8.23;;;21.00;99.90;;;;;;5079696;28;20576;-82
2022/07/21 00:30:05;;;;;;;8.67;7.77;;;21.00;99.90;;;;;;5079028;28;20173;-82
2022/07/21 00:32:31;;;;;;;9.77;8.30;;;21.00;99.90;;;;;;5078038;28;20183;-82
2022/07/21 00:34:57;;;;;;;9.43;8.20;;;;;;;;;;5080255;28;20284;-82
2022/07/21 00:37:27;;;;;;;8.93;7.63;;;20.90;99.90;;;;;;5080036;28;20196;-81
2022/07/21 00:39:53;;;;;;;8.43;7.40;;;21.00;99.90;;;;;;5086375;28;20169;-81
2022/07/21 00:42:23;;;;;;;8.57;7.60;;;21.00;99.90;;;;;;5097647;28;20173;-81
2022/07/21 00:44:49;;;;;;;9.80;7.87;;;21.00;99.90;;;;;;5097154;28;20219;-81
2022/07/21 00:47:18;;;;;;;9.03;7.43;;;21.00;99.90;;;;;;5096649;28;20160;-81
2022/07/21 00:49:44;;;;;;;8.30;7.50;;;21.00;99.90;;;;;;5097126;28;20168;-81
2022/07/21 00:52:10;;;;;;;7.43;6.50;;;21.00;99.90;;;;;;5096541;28;20215;-81
2022/07/21 00:54:36;;;;;;;7.83;6.40;;;21.00;99.90;;;;;;5096864;28;20201;-81
2022/07/21 00:57:03;;;;;;;8.53;7.53;;;;;;;;;;5096739;28;20181;-80
2022/07/21 00:59:30;;;;;;;8.43;6.80;;;20.90;99.90;;;;;;5096614;28;20551;-81
2022/07/21 01:01:56;;;;;;;9.13;6.80;;;21.00;99.90;;;;;;5081729;28;20220;-82
2022/07/21 01:04:22;;;;;;;7.67;6.03;;;;;;;;;;5076883;28;20217;-81
2022/07/21 01:06:47;;;;;;;9.93;7.00;;;20.90;99.90;;;;;;5077105;28;20176;-82
2022/07/21 01:09:14;;;;;;;6.70;5.97;;;;;;;;;;5078490;28;20615;-82
2022/07/21 01:11:40;;;;;;;8.63;6.60;;;21.00;99.90;;;;;;5078973;28;20177;-81
2022/07/21 01:14:06;;;;;;;6.73;6.00;;;20.90;99.90;;;;;;5076819;28;20205;-82
2022/07/21 01:16:32;;;;;;;7.07;6.37;;;20.90;99.90;;;;;;5079079;28;20184;-82
2022/07/21 01:18:58;;;;;;;7.50;6.70;;;;;;;;;;5076926;28;20185;-82
2022/07/21 01:21:44;;;;;;;7.30;6.60;;;20.90;99.90;;;;;;5079524;28;20181;-82
2022/07/21 01:24:10;;;;;;;7.63;6.83;;;;;;;;;;5078709;28;20267;-82
2022/07/21 01:26:44;;;;;;;8.93;6.70;;;20.80;99.90;;;;;;5079976;28;20184;-82
2022/07/21 01:29:11;;;;;;;10.60;6.57;;;20.70;99.90;;;;;;5079093;28;20302;-82
2022/07/21 01:31:38;;;;;;;7.37;6.67;;;20.70;99.90;;;;;;5077683;28;20181;-82
2022/07/21 01:34:05;;;;;;;8.97;7.23;;;20.60;99.90;;;;;;5078156;28;20347;-81
2022/07/21 01:36:31;;;;;;;7.80;7.00;;;20.60;99.90;;;;;;5078854;28;20188;-83
2022/07/21 01:41:41;;;;;;;7.53;6.73;;;20.60;99.90;;;;;;5079827;28;20188;-82
2022/07/21 01:44:09;;;;;;;8.30;6.80;;;20.50;99.90;;;;;;5077578;28;20209;-82
2022/07/21 01:46:38;;;;;;;8.60;7.53;;;20.50;99.90;;;;;;5078656;28;20169;-82
2022/07/21 01:49:05;;;;;;;9.70;7.33;;;20.50;99.90;;;;;;5078618;28;20230;-82
2022/07/21 01:51:30;;;;;;;9.97;8.13;;;20.40;99.90;;;;;;5079409;28;20169;-82
2022/07/21 01:53:56;;;;;;;9.73;7.73;;;20.30;99.90;;;;;;5075490;28;20201;-82
2022/07/21 01:56:24;;;;;;;8.67;7.87;;;20.30;99.90;;;;;;5074505;28;20254;-82
2022/07/21 01:58:51;;;;;;;10.37;7.90;;;20.20;99.90;;;;;;5077400;28;20213;-82
2022/07/21 02:01:18;;;;;;;10.97;8.17;;;20.20;99.90;;;;;;5078214;28;20673;-81
2022/07/21 02:03:45;;;;;;;10.53;7.97;;;20.20;99.90;;;;;;5078209;28;20666;-82
2022/07/21 02:06:12;;;;;;;10.80;8.00;;;20.20;99.90;;;;;;5083123;28;20176;-82
2022/07/21 02:08:37;;;;;;;8.80;7.30;;;20.20;99.90;;;;;;5084568;28;20173;-82
2022/07/21 02:11:04;;;;;;;11.40;7.60;;;20.20;99.90;;;;;;5085212;28;20210;-82
2022/07/21 02:13:30;;;;;;;10.57;9.00;;;20.20;99.90;;;;;;5084637;28;20237;-82
2022/07/21 02:15:56;;;;;;;9.50;8.60;;;20.20;99.90;;;;;;5081765;28;20610;-82
2022/07/21 02:18:22;;;;;;;10.27;8.60;;;;;;;;;;5081267;28;20189;-81
2022/07/21 02:20:48;;;;;;;9.37;8.47;;;20.30;99.90;;;;;;5081167;28;20181;-81
2022/07/21 02:23:15;;;;;;;9.20;8.30;;;20.20;99.90;;;;;;5080585;28;20209;-81
2022/07/21 02:25:41;;;;;;;9.97;8.90;;;20.30;99.90;;;;;;5086594;28;20197;-82
2022/07/21 02:28:07;;;;;;;12.53;9.50;;;20.30;99.90;;;;;;5087359;28;20177;-83
2022/07/21 02:30:33;;;;;;;13.80;9.80;;;20.30;99.90;;;;;;5081101;28;20519;-82
2022/07/21 02:32:58;;;;;;;11.37;10.17;;;20.10;99.90;;;;;;5083090;28;20267;-81
2022/07/21 02:35:24;;;;;;;12.43;10.30;;;20.10;99.90;;;;;;5090759;28;20197;-80
2022/07/21 02:37:50;;;;;;;12.77;10.73;;;20.00;99.90;;;;;;5096784;28;20205;-80
2022/07/21 02:40:16;;;;;;;11.73;10.50;;;19.90;99.90;;;;;;5089792;28;20199;-81
2022/07/21 02:42:42;;;;;;;11.80;10.53;;;;;;;;;;5080509;28;20173;-81
2022/07/21 02:45:09;;;;;;;13.63;11.17;;;19.80;99.90;;;;;;5080810;28;20264;-82
2022/07/21 02:48:09;;;;;;;13.70;11.10;;;19.80;99.90;;;;;;5082981;28;20275;-81
2022/07/21 02:50:37;;;;;;;14.47;11.77;;;19.70;99.90;;;;;;5036586;28;20192;-82
2022/07/21 02:53:06;;;;;;;14.53;12.03;;;19.70;99.90;;;;;;5080221;28;20200;-82
2022/07/21 02:55:32;;;;;;;15.53;12.53;;;19.70;99.90;;;;;;5078625;28;20287;-81
2022/07/21 02:58:10;;;;;;;13.73;11.83;;;19.60;99.90;;;;;;5078586;28;20188;-81
2022/07/21 03:00:38;;;;;;;13.57;11.43;;;19.50;99.90;;;;;;5079798;28;20165;-81
2022/07/21 03:03:05;;;;;;;15.67;12.47;;;19.50;99.90;;;;;;5079797;28;20207;-80
2022/07/21 03:05:32;;;;;;;14.77;11.77;;;19.50;99.90;;;;;;5079579;28;20197;-81
2022/07/21 03:07:58;;;;;;;15.40;12.03;;;19.50;99.90;;;;;;5081971;28;20177;-79
2022/07/21 03:10:24;;;;;;;15.57;12.90;;;19.50;99.90;;;;;;5090322;28;20181;-79
2022/07/21 03:12:49;;;;;;;15.60;13.03;;;19.50;99.90;;;;;;5090240;28;20179;-79
2022/07/21 03:15:15;;;;;;;16.20;12.87;;;19.40;99.90;;;;;;5090554;28;20197;-79
2022/07/21 03:17:41;;;;;;;17.43;12.90;;;19.50;99.90;;;;;;5089032;28;20198;-79
2022/07/21 03:20:07;;;;;;;14.27;12.77;;;19.40;99.90;;;;;;5089911;28;20177;-80
2022/07/21 03:22:33;;;;;;;16.37;12.97;;;19.40;99.90;;;;;;5090160;28;20180;-79
2022/07/21 03:24:59;;;;;;;13.90;12.50;;;19.40;99.90;;;;;;5090065;28;20223;-80
2022/07/21 03:27:25;;;;;;;13.73;12.33;;;19.40;99.90;;;;;;5086744;28;20191;-80
2022/07/21 03:29:51;;;;;;;14.73;12.87;;;;;;;;;;5079794;28;20729;-80
2022/07/21 03:32:17;;;;;;;18.07;12.90;;;19.40;99.90;;;;;;5079961;28;20175;-80
2022/07/21 03:34:45;;;;;;;13.40;12.00;;;19.30;99.90;;;;;;5079640;28;20199;-80
2022/07/21 03:37:11;;;;;;;15.03;12.97;;;19.30;99.90;;;;;;5077572;28;20179;-80
2022/07/21 03:39:37;;;;;;;15.50;13.67;;;19.30;99.90;;;;;;5079332;28;20186;-80
2022/07/21 03:42:03;;;;;;;14.23;12.67;;;19.30;99.90;;;;;;5077846;28;20263;-80
2022/07/21 03:44:29;;;;;;;14.90;13.40;;;19.30;99.90;;;;;;5078663;28;20220;-80
2022/07/21 03:46:56;;;;;;;14.83;12.63;;;;;;;;;;5079638;28;20175;-80
2022/07/21 03:49:22;;;;;;;15.07;13.50;;;19.30;99.90;;;;;;5078200;28;20175;-80
2022/07/21 03:51:48;;;;;;;19.17;14.07;;;19.40;99.90;;;;;;5078771;28;20175;-80
2022/07/21 03:54:14;;;;;;;14.80;13.03;;;19.40;99.90;;;;;;5080142;28;20273;-81
2022/07/21 03:56:39;;;;;;;15.10;13.50;;;19.30;99.90;;;;;;5079405;28;20175;-80
2022/07/21 03:59:05;;;;;;;16.80;14.63;;;19.30;99.90;;;;;;5077763;28;20179;-80
2022/07/21 04:01:31;;;;;;;16.43;14.73;;;;;;;;;;5075945;28;20638;-80
2022/07/21 04:03:57;;;;;;;16.40;14.47;;;19.40;99.90;;;;;;5075263;28;20211;-80
2022/07/21 04:06:22;;;;;;;16.57;14.07;;;19.40;99.90;;;;;;5075355;28;20178;-80
2022/07/21 04:08:48;;;;;;;15.53;13.93;;;;;;;;;;5074632;28;20262;-80
2022/07/21 04:11:14;;;;;;;16.17;14.30;;;19.40;99.90;;;;;;5078022;28;20663;-81
2022/07/21 04:13:40;;;;;;;15.60;14.00;;;;;;;;;;5092788;28;20239;-79
2022/07/21 04:16:06;;;;;;;17.10;15.30;;;19.40;99.90;;;;;;5095319;28;20207;-79
2022/07/21 04:18:32;;;;;;;17.13;14.93;;;19.50;99.90;;;;;;5084847;28;20198;-80
2022/07/21 04:20:58;;;;;;;16.13;14.53;;;;;;;;;;5078749;28;20188;-80
2022/07/21 04:23:23;;;;;;;16.33;14.10;;;19.50;99.90;;;;;;5078774;28;20247;-80
2022/07/21 04:25:49;;;;;;;17.87;15.77;;;;;;;;;;5077005;28;20199;-80
2022/07/21 04:28:15;;;;;;;17.13;15.30;;;19.60;99.90;;;;;;5077251;28;20175;-81
2022/07/21 04:30:41;;;;;;;16.67;15.03;;;;;;;;;;5080337;28;20561;-80
2022/07/21 04:33:07;;;;;;;17.97;15.40;;;;;;;;;;5078285;28;20190;-80
2022/07/21 04:35:33;;;;;;;18.33;15.43;;;19.50;99.90;;;;;;5077220;28;20214;-80
2022/07/21 04:37:59;;;;;;;18.57;15.87;;;19.50;99.90;;;;;;5078054;28;20191;-80
2022/07/21 04:40:24;;;;;;;16.17;14.47;;;19.50;99.90;;;;;;5077061;28;20325;-80
2022/07/21 04:42:51;;;;;;;18.43;14.70;;;;;;;;;;5076956;28;20558;-80
2022/07/21 04:45:17;;;;;;;15.87;13.67;;;19.50;99.90;;;;;;5077443;28;20211;-80
2022/07/21 04:47:52;;;;;;;19.50;15.93;;;19.60;99.90;;;;;;5078085;28;20213;-80
2022/07/21 04:50:19;;;;;;;17.07;14.93;;;19.60;99.90;;;;;;5078800;28;20165;-81
2022/07/21 04:52:45;;;;;;;16.53;14.83;;;19.60;99.90;;;;;;5078348;28;20180;-80
2022/07/21 04:55:12;;;;;;;16.07;14.17;;;19.60;99.90;;;;;;5079745;28;20194;-81
2022/07/21 04:57:42;;;;;;;16.57;14.67;;;19.60;99.90;;;;;;5078231;28;20637;-80
2022/07/21 05:00:10;;;;;;;17.40;14.67;;;19.70;99.90;;;;;;5078347;28;20180;-80
2022/07/21 05:02:36;;;;;;;16.17;14.30;;;19.70;99.90;;;;;;5077991;28;20184;-80
2022/07/21 05:05:02;;;;;;;16.73;13.63;;;19.80;99.90;;;;;;5078229;28;20199;-81
2022/07/21 05:07:28;;;;;;;17.17;14.60;;;19.80;99.90;;;;;;5079632;28;20188;-81
2022/07/21 05:09:54;;;;;;;15.40;13.17;;;;;;;;;;5078567;28;20168;-80
2022/07/21 05:12:20;;;;;;;15.23;13.60;;;19.90;99.90;;;;;;5080124;28;20184;-80
2022/07/21 05:14:45;;;;;;;14.27;12.77;;;20.00;99.90;;;;;;5079573;28;20588;-80
2022/07/21 05:17:11;;;;;;;16.00;13.30;;;20.00;99.90;;;;;;5079874;28;20185;-80
2022/07/21 05:19:37;;;;;;;13.03;11.73;;;20.00;99.90;;;;;;5078960;28;20185;-80
2022/07/21 05:22:02;;;;;;;13.97;12.00;;;20.10;99.90;;;;;;5078418;28;20222;-80
2022/07/21 05:24:28;;;;;;;13.23;11.50;;;20.30;99.90;;;;;;5079626;28;20215;-81
2022/07/21 05:26:54;;;;;;;14.47;11.63;;;;;;;;;;5079708;28;20171;-80
2022/07/21 05:29:20;;;;;;;12.23;10.93;;;20.40;99.90;;;;;;5078884;28;20216;-80
2022/07/21 05:31:45;;;;;;;12.10;10.80;;;20.20;99.90;;;;;;5081983;28;20173;-81
2022/07/21 05:34:11;;;;;;;12.57;11.00;;;20.30;99.90;;;;;;5081084;28;20226;-80
2022/07/21 05:36:37;;;;;;;12.80;11.50;;;20.30;99.90;;;;;;5079952;28;20275;-81
2022/07/21 05:39:03;;;;;;;13.90;10.93;;;20.30;99.90;;;;;;5082898;28;20196;-80
2022/07/21 05:41:29;;;;;;;14.40;11.93;;;20.20;99.90;;;;;;5082399;28;20181;-81
2022/07/21 05:43:55;;;;;;;14.90;10.87;;;;;;;;;;5082076;28;20262;-81
2022/07/21 05:46:21;;;;;;;13.23;11.37;;;;;;;;;;5082441;28;20199;-81
2022/07/21 05:48:46;;;;;;;14.20;11.70;;;20.40;99.90;;;;;;5083811;28;20170;-82
2022/07/21 05:51:13;;;;;;;12.73;11.13;;;;;;;;;;5086777;28;20177;-80
2022/07/21 05:53:39;;;;;;;13.60;11.63;;;;;;;;;;5096525;28;20188;-81
2022/07/21 05:56:04;;;;;;;12.33;11.13;;;20.40;99.90;;;;;;5097160;28;20187;-80
2022/07/21 05:58:32;;;;;;;13.40;12.00;;;20.40;99.90;;;;;;5079263;28;20180;-80
2022/07/21 06:01:12;;;;;;;14.20;11.80;;;20.40;99.90;;;;;;5078778;28;20647;-80
2022/07/21 06:03:39;;;;;;;12.03;10.63;;;20.40;99.90;;;;;;5079034;28;20425;-81
2022/07/21 06:06:05;;;;;;;12.30;10.97;;;20.40;99.90;;;;;;5079391;28;20579;-81
2022/07/21 06:08:31;;;;;;;12.50;10.77;;;20.40;99.90;;;;;;5078574;28;20181;-81
2022/07/21 06:10:57;;;;;;;14.07;11.30;;;20.40;99.90;;;;;;5077743;28;20200;-81
2022/07/21 06:13:24;;;;;;;14.37;11.63;;;;;;;;;;5076342;28;20205;-81
2022/07/21 06:15:49;;;;;;;15.17;12.57;;;20.20;99.90;;;;;;5075450;28;20201;-81
2022/07/21 06:18:15;;;;;;;19.57;12.73;;;;;;;;;;5083080;28;20180;-81
2022/07/21 06:20:42;;;;;;;16.77;12.50;;;20.20;99.90;;;;;;5084103;28;20177;-81
2022/07/21 06:23:07;;;;;;;13.23;11.80;;;20.10;99.90;;;;;;5083031;28;20576;-82
2022/07/21 06:25:33;;;;;;;16.50;12.53;;;20.10;99.90;;;;;;5083559;28;20201;-82
2022/07/21 06:27:59;;;;;;;18.73;13.50;;;20.00;99.90;;;;;;5083810;28;20177;-82
2022/07/21 06:30:25;;;;;;;16.13;12.93;;;;;;;;;;5085118;28;20173;-83
2022/07/21 06:32:51;;;;;;;16.97;13.80;;;20.00;99.90;;;;;;5084962;28;20266;-82
2022/07/21 06:35:17;;;;;;;18.60;13.57;;;;;;;;;;5087871;28;20199;-82
2022/07/21 06:37:46;;;;;;;17.30;12.07;;;20.10;99.90;;;;;;5083299;28;20184;-82
2022/07/21 06:40:12;;;;;;;15.83;12.63;;;20.00;99.90;;;;;;5083637;28;20169;-82
2022/07/21 06:42:38;;;;;;;15.10;12.93;;;;;;;;;;5082625;28;20211;-82
2022/07/21 06:45:05;;;;;;;16.67;13.10;;;20.10;99.90;;;;;;5083647;28;20197;-82
2022/07/21 06:47:31;;;;;;;15.60;12.93;;;20.10;99.90;;;;;;5083156;28;20176;-82
2022/07/21 06:50:02;;;;;;;18.50;13.17;;;;;;;;;;5083647;28;20515;-82
2022/07/21 06:52:31;;;;;;;14.20;12.33;;;19.90;99.90;;;;;;5082351;28;20172;-82
2022/07/21 06:54:57;;;;;;;17.43;13.43;;;19.80;99.90;;;;;;5083771;28;20239;-82
2022/07/21 06:57:23;;;;;;;15.57;12.60;;;19.80;99.90;;;;;;5081824;28;20181;-82
2022/07/21 06:59:49;;;;;;;15.93;14.23;;;19.90;99.90;;;;;;5081713;28;20620;-82
2022/07/21 07:02:15;;;;;;;14.43;12.43;;;;;;;;;;5082552;28;20184;-82
2022/07/21 07:04:41;;;;;;;17.50;13.57;;;20.00;99.90;;;;;;5081986;28;20682;-82
2022/07/21 07:07:07;;;;;;;18.43;13.43;;;;;;;;;;5082969;28;20179;-82
2022/07/21 07:09:33;;;;;;;14.47;12.97;;;20.10;99.90;;;;;;5081411;28;20179;-82
2022/07/21 07:12:03;;;;;;;15.37;13.53;;;;;;;;;;5083407;28;20185;-82
2022/07/21 07:14:30;;;;;;;17.67;15.63;;;20.00;99.90;;;;;;5083042;28;20197;-82
2022/07/21 07:16:56;;;;;;;18.10;14.77;;;20.00;99.90;;;;;;5083734;28;20556;-82
2022/07/21 07:19:22;;;;;;;18.57;14.10;;;20.10;99.90;;;;;;5082347;28;20177;-82
2022/07/21 07:21:48;;;;;;;17.40;15.60;;;20.00;99.90;;;;;;5082220;28;20181;-82
2022/07/21 07:24:14;;;;;;;17.50;14.70;;;;;;;;;;5083954;28;20697;-81
2022/07/21 07:26:40;;;;;;;18.80;14.40;;;20.10;99.90;;;;;;5083005;28;20177;-82
2022/07/21 07:29:06;;;;;;;17.33;14.97;;;20.00;99.90;;;;;;5094756;28;20245;-82
2022/07/21 07:31:32;;;;;;;19.60;14.83;;;;;;;;;;5092106;28;20181;-82
2022/07/21 07:33:58;;;;;;;24.47;16.43;;;20.10;99.90;;;;;;5081944;28;20197;-82
2022/07/21 07:36:28;;;;;;;25.40;17.50;;;20.10;99.90;;;;;;5083034;28;20184;-82
2022/07/21 07:38:56;;;;;;;16.17;14.20;;;20.20;99.90;;;;;;5081882;28;20200;-82
2022/07/21 07:41:23;;;;;;;16.73;13.97;;;20.20;99.90;;;;;;5083768;28;20191;-83
2022/07/21 07:43:49;;;;;;;18.03;14.90;;;;;;;;;;5079644;28;20212;-82
2022/07/21 07:46:15;;;;;;;18.67;14.43;;;20.20;99.90;;;;;;5079783;28;20226;-82
2022/07/21 07:48:42;;;;;;;18.13;16.03;;;20.20;99.90;;;;;;5079295;28;20176;-82
2022/07/21 07:51:12;;;;;;;16.97;13.60;;;20.40;99.90;;;;;;5080443;28;20289;-82
2022/07/21 07:53:38;;;;;;;20.07;14.20;;;20.30;99.90;;;;;;5079154;28;20567;-82
2022/07/21 07:56:04;;;;;;;16.87;15.07;;;20.30;99.90;;;;;;5078931;28;20185;-82
2022/07/21 07:58:30;;;;;;;20.33;15.53;;;20.40;99.90;;;;;;5078504;28;20654;-81
2022/07/21 08:00:56;;;;;;;17.77;15.87;;;;;;;;;;5078349;28;20181;-82
2022/07/21 08:03:23;;;;;;;17.40;14.50;;;20.60;99.90;;;;;;5079283;28;20255;-82
2022/07/21 08:05:50;;;;;;;17.00;14.37;;;20.70;99.90;;;;;;5079561;28;20223;-82
2022/07/21 08:08:16;;;;;;;15.27;13.40;;;20.80;99.90;;;;;;5077740;28;20205;-81
2022/07/21 08:10:43;;;;;;;17.63;14.07;;;20.70;99.90;;;;;;5079169;28;20181;-82
2022/07/21 08:13:10;;;;;;;16.27;13.30;;;20.80;99.90;;;;;;5077174;28;20195;-82
2022/07/21 08:15:35;;;;;;;18.50;13.23;;;20.70;99.90;;;;;;5075885;28;20258;-82
2022/07/21 08:18:02;;;;;;;17.17;13.70;;;20.80;99.90;;;;;;5074207;28;20185;-81
2022/07/21 08:20:27;;;;;;;16.87;14.33;;;20.80;99.90;;;;;;5073026;28;20273;-82
2022/07/21 08:22:53;;;;;;;16.50;14.23;;;;;;;;;;5079665;28;20196;-82
2022/07/21 08:25:19;;;;;;;17.17;15.33;;;20.80;99.90;;;;;;5080175;28;20228;-82
2022/07/21 08:27:45;;;;;;;17.03;14.83;;;;;;;;;;5081048;28;20184;-82
2022/07/21 08:30:11;;;;;;;16.67;14.80;;;21.00;99.90;;;;;;5080109;28;20184;-82
2022/07/21 08:32:37;;;;;;;18.93;15.43;;;21.00;99.90;;;;;;5081695;28;20180;-83
2022/07/21 08:35:08;;;;;;;14.27;12.87;;;21.00;99.90;;;;;;5080234;28;20201;-83
2022/07/21 08:37:51;;;;;;;18.50;14.50;;;21.00;99.90;;;;;;5082017;28;20285;-82
2022/07/21 08:40:18;;;;;;;17.20;15.07;;;21.00;99.90;;;;;;5081124;28;20244;-83
2022/07/21 08:42:46;;;;;;;19.53;15.23;;;21.00;99.90;;;;;;5080940;28;20207;-82
2022/07/21 08:45:11;;;;;;;16.10;14.40;;;21.00;99.90;;;;;;5081891;28;20193;-82
2022/07/21 08:47:38;;;;;;;16.23;13.33;;;;;;;;;;5080694;28;20185;-82
2022/07/21 08:50:04;;;;;;;15.60;13.47;;;21.00;99.90;;;;;;5081192;28;20268;-82
2022/07/21 08:52:30;;;;;;;15.33;13.47;;;;;;;;;;5081199;28;20191;-82
2022/07/21 08:54:56;;;;;;;16.00;14.17;;;20.80;99.90;;;;;;5080943;28;20197;-82
2022/07/21 08:57:22;;;;;;;15.63;12.37;;;;;;;;;;5082270;28;20180;-82
2022/07/21 08:59:48;;;;;;;16.50;14.13;;;20.80;99.90;;;;;;5081653;28;20235;-82
2022/07/21 09:02:26;;;;;;;17.13;15.33;;;20.80;99.90;;;;;;5082333;28;20227;-83
2022/07/21 09:04:53;;;;;;;15.37;13.73;;;20.90;99.90;;;;;;5082853;28;20288;-82
2022/07/21 09:07:19;;;;;;;13.87;12.33;;;;;;;;;;5087750;28;20306;-82
2022/07/21 09:10:00;;;;;;;14.73;13.23;;;20.90;99.90;;;;;;5098359;28;20176;-82
2022/07/21 09:12:27;;;;;;;16.63;13.60;;;20.80;99.90;;;;;;5096616;28;20181;-82
2022/07/21 09:15:12;;;;;;;17.17;14.23;;;20.80;99.90;;;;;;5086223;28;20595;-82
2022/07/21 09:17:38;;;;;;;15.90;14.20;;;20.70;99.90;;;;;;5082910;28;20685;-82
2022/07/21 09:20:20;;;;;;;15.97;14.27;;;20.90;99.90;;;;;;5085151;28;20173;-82
2022/07/21 09:23:02;;;;;;;16.20;14.50;;;20.90;99.90;;;;;;5083757;28;20524;-82
2022/07/21 09:25:39;;;;;;;18.00;15.87;;;20.80;99.90;;;;;;5081831;28;20206;-82
2022/07/21 09:28:16;;;;;;;15.77;14.07;;;20.70;99.90;;;;;;5083113;28;20252;-82
2022/07/21 09:30:53;;;;;;;17.77;14.57;;;20.80;99.90;;;;;;5082227;28;20165;-83
2022/07/21 09:33:22;;;;;;;16.63;14.87;;;20.80;99.90;;;;;;5082462;28;20308;-83
2022/07/21 09:35:56;;;;;;;17.50;15.07;;;20.90;99.90;;;;;;5083234;28;20203;-83
2022/07/21 09:38:22;;;;;;;17.37;14.13;;;20.90;99.90;;;;;;5082109;28;20204;-83
2022/07/21 09:40:49;;;;;;;18.73;13.80;;;20.90;99.90;;;;;;5083860;28;20180;-83
2022/07/21 09:43:41;;;;;;;16.47;14.10;;;21.00;99.90;;;;;;5081410;28;20291;-82
2022/07/21 09:46:11;;;;;;;15.70;14.10;;;21.00;99.90;;;;;;5083371;28;20628;-82
2022/07/21 09:48:39;;;;;;;15.23;13.07;;;21.00;99.90;;;;;;5082427;28;20168;-82
2022/07/21 09:51:27;;;;;;;15.10;13.50;;;21.00;99.90;;;;;;5081951;28;20639;-82
2022/07/21 09:54:02;;;;;;;15.27;13.73;;;20.90;99.90;;;;;;5082365;28;20725;-83
2022/07/21 09:56:33;;;;;;;16.60;13.90;;;21.10;99.90;;;;;;5084224;28;20188;-82
2022/07/21 09:59:01;;;;;;;16.17;14.50;;;20.90;99.90;;;;;;5081408;28;20161;-82
2022/07/21 10:01:28;;;;;;;16.40;13.23;;;21.00;99.90;;;;;;5080373;28;20530;-81
2022/07/21 10:03:55;;;;;;;16.50;13.40;;;21.10;99.90;;;;;;5081017;28;20209;-82
2022/07/21 10:06:25;;;;;;;14.40;12.97;;;21.10;99.90;;;;;;5081080;28;20179;-82
2022/07/21 10:08:52;;;;;;;14.03;12.53;;;21.10;99.90;;;;;;5080899;28;20169;-82
2022/07/21 10:11:18;;;;;;;14.37;12.83;;;;;;;;;;5081022;28;20682;-81
2022/07/21 10:13:44;;;;;;;13.33;11.13;;;21.20;99.90;;;;;;5079617;28;20189;-82
2022/07/21 10:16:11;;;;;;;15.80;13.17;;;21.20;99.90;;;;;;5079500;28;20200;-83
2022/07/21 10:19:32;;;;;;;15.40;13.90;;;21.00;99.90;;;;;;5077219;28;20187;-82
2022/07/21 10:22:22;;;;;;;17.73;14.27;;;21.20;99.90;;;;;;5033597;28;20188;-82
2022/07/21 10:24:48;;;;;;;16.30;14.70;;;21.20;99.90;;;;;;5076031;28;20678;-83
2022/07/21 10:27:14;;;;;;;18.47;15.03;;;21.20;99.90;;;;;;5076832;28;20165;-84
2022/07/21 10:29:55;;;;;;;16.27;14.57;;;21.30;99.90;;;;;;5082772;28;20176;-81
2022/07/21 10:32:26;;;;;;;17.67;15.27;;;21.40;99.90;;;;;;5082915;28;20177;-81
2022/07/21 10:34:57;;;;;;;16.77;14.73;;;21.30;99.90;;;;;;5083623;28;20193;-81
2022/07/21 10:37:44;;;;;;;16.93;15.17;;;21.10;99.90;;;;;;5083030;28;20161;-81
2022/07/21 10:40:13;;;;;;;17.10;15.27;;;21.20;99.90;;;;;;5085370;28;20231;-82
2022/07/21 10:42:38;;;;;;;18.00;15.00;;;21.00;99.90;;;;;;5085904;28;20184;-81
2022/07/21 10:45:30;;;;;;;16.37;14.73;;;20.80;99.90;;;;;;5096225;28;20237;-81
2022/07/21 10:47:56;;;;;;;16.30;14.03;;;20.80;99.90;;;;;;5096267;28;20183;-81
2022/07/21 10:50:39;;;;;;;16.43;14.67;;;20.90;99.90;;;;;;5097151;28;20188;-81
2022/07/21 10:53:18;;;;;;;16.37;14.57;;;21.00;99.90;;;;;;5082313;28;20221;-81
2022/07/21 10:55:51;;;;;;;17.40;15.20;;;21.00;99.90;;;;;;5082291;28;20193;-82
2022/07/21 10:58:27;;;;;;;16.13;14.60;;;21.00;99.90;;;;;;5082142;28;20169;-81
2022/07/21 11:00:55;;;;;;;20.33;15.50;;;21.10;99.90;;;;;;5081881;28;20264;-82
2022/07/21 11:03:29;;;;;;;16.43;14.73;;;21.10;99.90;;;;;;5080001;28;20211;-82
2022/07/21 11:06:09;;;;;;;16.67;13.40;;;21.10;99.90;;;;;;5080098;28;20171;-81
2022/07/21 11:08:44;;;;;;;16.60;14.83;;;21.10;99.90;;;;;;5081281;28;20177;-82
2022/07/21 11:11:11;;;;;;;17.10;13.47;;;21.00;99.90;;;;;;5080229;28;20206;-82
2022/07/21 11:14:02;;;;;;;15.70;12.73;;;21.00;99.90;;;;;;5081866;28;20187;-81
2022/07/21 11:16:39;;;;;;;13.90;12.33;;;21.00;99.90;;;;;;5079827;28;20185;-82
2022/07/21 11:19:05;;;;;;;14.83;12.07;;;21.10;99.90;;;;;;5080197;28;20181;-81
2022/07/21 11:21:31;;;;;;;11.73;10.47;;;21.10;99.90;;;;;;5082519;28;20196;-81
2022/07/21 11:23:57;;;;;;;13.70;11.10;;;21.30;99.90;;;;;;5080930;28;20216;-83
2022/07/21 11:26:26;;;;;;;12.83;10.17;;;21.40;99.90;;;;;;5076925;28;20184;-79
2022/07/21 11:29:06;;;;;;;11.30;9.40;;;21.60;99.90;;;;;;5075984;28;20210;-78
2022/07/21 11:31:32;;;;;;;11.23;9.70;;;21.80;99.90;;;;;;5076188;28;20268;-79
2022/07/21 11:33:58;;;;;;;14.83;11.13;;;;;;;;;;5078699;28;20620;-80
2022/07/21 11:36:30;;;;;;;13.17;11.63;;;22.10;99.90;;;;;;5079772;28;20203;-82
2022/07/21 11:39:01;;;;;;;14.37;11.70;;;22.30;99.90;;;;;;5078281;28;20333;-81
2022/07/21 11:41:27;;;;;;;11.57;10.20;;;22.50;99.90;;;;;;5079341;28;20185;-82
2022/07/21 11:43:53;;;;;;;11.83;9.23;;;22.90;99.90;;;;;;5078295;28;20684;-81
2022/07/21 11:46:19;;;;;;;10.70;9.57;;;22.90;99.90;;;;;;5078872;28;20184;-82
2022/07/21 11:48:45;;;;;;;12.63;9.93;;;23.30;99.90;;;;;;5079970;28;20199;-83
2022/07/21 11:51:10;;;;;;;8.90;8.03;;;23.40;99.90;;;;;;5078209;28;20181;-82
2022/07/21 11:53:43;;;;;;;9.57;7.57;;;23.60;99.90;;;;;;5078968;28;20188;-82
2022/07/21 11:56:16;;;;;;;10.27;8.07;;;23.60;99.90;;;;;;5079707;28;20173;-82
2022/07/21 11:58:43;;;;;;;9.27;7.60;;;23.70;99.90;;;;;;5078234;28;20231;-83
2022/07/21 12:01:09;;;;;;;9.40;8.37;;;23.50;99.90;;;;;;5081085;28;20185;-81
2022/07/21 12:03:50;;;;;;;10.67;8.37;;;23.60;99.90;;;;;;5078260;28;20230;-81
2022/07/21 12:06:17;;;;;;;11.60;8.07;;;23.60;99.90;;;;;;5078740;28;20180;-81
2022/07/21 12:08:44;;;;;;;10.33;7.57;;;23.70;99.90;;;;;;5079583;28;20177;-82
2022/07/21 12:11:12;;;;;;;10.47;7.50;;;23.80;99.90;;;;;;5080942;28;20193;-81
2022/07/21 12:14:03;;;;;;;10.70;7.70;;;23.70;99.90;;;;;;5081076;28;20180;-81
2022/07/21 12:16:29;;;;;;;9.23;8.07;;;23.70;99.90;;;;;;5077308;28;20221;-82
2022/07/21 12:19:16;;;;;;;10.07;8.87;;;23.70;99.90;;;;;;5081541;28;20185;-83
2022/07/21 12:21:47;;;;;;;10.43;9.23;;;23.60;99.90;;;;;;5080582;28;20178;-82
2022/07/21 12:24:13;;;;;;;9.87;8.53;;;23.50;99.90;;;;;;5088172;28;20213;-81
2022/07/21 12:26:38;;;;;;;10.17;9.10;;;23.40;99.90;;;;;;5094152;28;20180;-80
2022/07/21 12:29:04;;;;;;;9.63;8.40;;;23.40;99.90;;;;;;5087863;28;20245;-81
2022/07/21 12:31:34;;;;;;;10.23;8.20;;;23.50;99.90;;;;;;5085540;28;20179;-82
2022/07/21 12:34:13;;;;;;;12.90;9.80;;;23.50;99.90;;;;;;5079417;28;20199;-82
2022/07/21 12:36:43;;;;;;;11.30;8.70;;;23.50;99.90;;;;;;5077501;28;20553;-81
2022/07/21 12:42:26;;;;;;;10.90;8.10;;;23.50;99.90;;;;;;5078565;28;20169;-81
2022/07/21 12:44:52;;;;;;;8.70;7.80;;;23.40;99.90;;;;;;5078035;28;20213;-82
2022/07/21 12:47:20;;;;;;;9.67;7.53;;;23.50;99.90;;;;;;5077130;28;20173;-81
2022/07/21 12:50:05;;;;;;;8.33;6.80;;;23.70;99.90;;;;;;5075511;28;20173;-82
2022/07/21 12:52:31;;;;;;;7.70;6.73;;;23.90;99.90;;;;;;5077008;28;20173;-81
2022/07/21 12:54:59;;;;;;;9.03;6.10;;;24.00;99.90;;;;;;5075480;28;20340;-81
2022/07/21 12:57:27;;;;;;;9.43;7.20;;;24.40;99.90;;;;;;5076648;28;20175;-81
2022/07/21 12:59:53;;;;;;;7.43;6.47;;;24.40;99.90;;;;;;5077088;28;20173;-81